createdAt,value
2022-08-28T00:00:45.084Z,17.72
2022-08-28T00:03:17.515Z,17.76
2022-08-28T00:05:46.802Z,17.72
2022-08-28T00:08:17.196Z,17.68
2022-08-28T00:10:46.533Z,17.68
2022-08-28T00:13:18.973Z,17.66
2022-08-28T00:15:50.110Z,17.66
2022-08-28T00:18:20.297Z,17.64
2022-08-28T00:20:49.581Z,17.65
2022-08-28T00:23:18.755Z,17.64
2022-08-28T00:25:47.244Z,17.60
2022-08-28T00:28:24.334Z,17.60
2022-08-28T00:30:55.566Z,17.65
2022-08-28T00:33:28.304Z,17.59
2022-08-28T00:35:57.969Z,17.53
2022-08-28T00:38:27.581Z,17.56
2022-08-28T00:40:59.408Z,17.50
2022-08-28T00:43:36.064Z,17.45
2022-08-28T00:46:07.241Z,17.43
2022-08-28T00:48:37.274Z,17.41
2022-08-28T00:51:24.044Z,17.30
2022-08-28T00:53:58.545Z,17.34
2022-08-28T00:56:29.034Z,17.33
2022-08-28T00:58:59.865Z,17.28
2022-08-28T01:01:28.732Z,17.30
2022-08-28T01:04:00.946Z,17.25
2022-08-28T01:06:29.629Z,17.29
2022-08-28T01:08:59.062Z,17.26
2022-08-28T01:11:27.579Z,17.24
2022-08-28T01:13:57.124Z,17.18
2022-08-28T01:16:33.779Z,17.18
2022-08-28T01:19:05.701Z,17.16
2022-08-28T01:21:41.138Z,17.10
2022-08-28T01:24:14.885Z,17.13
2022-08-28T01:26:43.353Z,17.10
2022-08-28T01:29:13.009Z,17.04
2022-08-28T01:31:42.058Z,17.01
2022-08-28T01:34:13.161Z,16.96
2022-08-28T01:36:42.740Z,17.01
2022-08-28T01:39:16.549Z,16.99
2022-08-28T01:41:47.473Z,16.96
2022-08-28T01:44:18.186Z,16.95
2022-08-28T01:46:46.952Z,16.87
2022-08-28T01:49:15.435Z,16.86
2022-08-28T01:51:44.236Z,16.85
2022-08-28T01:54:14.775Z,16.86
2022-08-28T01:56:45.853Z,16.82
2022-08-28T01:59:15.386Z,16.82
2022-08-28T02:01:44.690Z,16.79
2022-08-28T02:04:13.607Z,16.80
2022-08-28T02:06:42.751Z,16.84
2022-08-28T02:09:14.492Z,16.79
2022-08-28T02:11:46.361Z,16.81
2022-08-28T02:14:15.479Z,16.77
2022-08-28T02:16:43.722Z,16.75
2022-08-28T02:19:13.219Z,16.73
2022-08-28T02:21:42.149Z,16.74
2022-08-28T02:24:10.800Z,16.78
2022-08-28T02:26:39.403Z,16.73
2022-08-28T02:29:09.363Z,16.74
2022-08-28T02:31:37.995Z,16.72
2022-08-28T02:34:06.720Z,16.70
2022-08-28T02:36:34.938Z,16.64
2022-08-28T02:39:03.312Z,16.59
2022-08-28T02:41:31.558Z,16.57
2022-08-28T02:43:59.895Z,16.54
2022-08-28T02:46:29.588Z,16.54
2022-08-28T02:48:58.169Z,16.55
2022-08-28T02:51:27.411Z,16.56
2022-08-28T02:53:55.648Z,16.55
2022-08-28T02:56:24.810Z,16.59
2022-08-28T02:58:53.115Z,16.59
2022-08-28T03:01:23.604Z,16.64
2022-08-28T03:03:53.269Z,16.58
2022-08-28T03:06:23.077Z,16.65
2022-08-28T03:08:51.410Z,16.61
2022-08-28T03:11:19.674Z,16.64
2022-08-28T03:13:48.067Z,16.64
2022-08-28T03:16:16.905Z,16.64
2022-08-28T03:18:45.497Z,16.59
2022-08-28T03:21:15.469Z,16.61
2022-08-28T03:23:42.857Z,16.57
2022-08-28T03:26:14.663Z,16.58
2022-08-28T03:28:46.751Z,16.58
2022-08-28T03:31:18.068Z,16.55
2022-08-28T03:33:47.584Z,16.54
2022-08-28T03:36:21.434Z,16.54
2022-08-28T03:38:50.336Z,16.50
2022-08-28T03:41:21.229Z,16.54
2022-08-28T03:43:49.608Z,16.49
2022-08-28T03:46:20.415Z,16.49
2022-08-28T03:48:48.771Z,16.48
2022-08-28T03:51:29.259Z,16.45
2022-08-28T03:53:58.906Z,16.49
2022-08-28T03:56:29.639Z,16.43
2022-08-28T03:58:59.667Z,16.42
2022-08-28T04:01:28.534Z,16.39
2022-08-28T04:03:57.038Z,16.37
2022-08-28T04:06:29.119Z,16.42
2022-08-28T04:08:59.976Z,16.39
2022-08-28T04:11:30.863Z,16.40
2022-08-28T04:13:59.319Z,16.34
2022-08-28T04:16:27.952Z,16.41
2022-08-28T04:18:56.463Z,16.40
2022-08-28T04:21:28.232Z,16.31
2022-08-28T04:23:57.093Z,16.30
2022-08-28T04:26:28.413Z,16.26
2022-08-28T04:28:56.739Z,16.22
2022-08-28T04:31:31.613Z,16.25
2022-08-28T04:34:02.084Z,16.29
2022-08-28T04:36:33.649Z,16.24
2022-08-28T04:39:02.693Z,16.12
2022-08-28T04:41:31.161Z,16.14
2022-08-28T04:43:59.931Z,16.10
2022-08-28T04:46:31.139Z,16.11
2022-08-28T04:49:00.058Z,16.11
2022-08-28T04:51:28.381Z,16.10
2022-08-28T04:53:59.342Z,16.04
2022-08-28T04:56:28.141Z,15.96
2022-08-28T04:58:56.391Z,15.86
2022-08-28T05:01:26.122Z,15.82
2022-08-28T05:03:57.713Z,15.74
2022-08-28T05:06:28.162Z,15.68
2022-08-28T05:08:59.275Z,15.67
2022-08-28T05:11:33.448Z,15.56
2022-08-28T05:14:04.549Z,15.51
2022-08-28T05:16:34.563Z,15.45
2022-08-28T05:19:04.293Z,15.48
2022-08-28T05:21:32.846Z,15.43
2022-08-28T05:24:02.768Z,15.48
2022-08-28T05:26:31.418Z,15.41
2022-08-28T05:29:00.540Z,15.43
2022-08-28T05:31:30.755Z,15.45
2022-08-28T05:34:00.174Z,15.48
2022-08-28T05:36:33.052Z,15.49
2022-08-28T05:39:07.700Z,15.53
2022-08-28T05:41:36.698Z,15.57
2022-08-28T05:44:07.456Z,15.56
2022-08-28T05:46:38.558Z,15.62
2022-08-28T05:49:10.021Z,15.56
2022-08-28T05:51:41.199Z,15.67
2022-08-28T05:54:11.787Z,15.65
2022-08-28T05:56:42.260Z,15.73
2022-08-28T05:59:12.047Z,15.73
2022-08-28T06:01:42.411Z,15.78
2022-08-28T06:04:12.802Z,15.83
2022-08-28T06:06:42.645Z,15.86
2022-08-28T06:09:15.874Z,16.03
2022-08-28T06:11:46.447Z,16.10
2022-08-28T06:14:17.474Z,16.11
2022-08-28T06:16:48.666Z,16.15
2022-08-28T06:19:18.045Z,16.25
2022-08-28T06:21:48.308Z,16.30
2022-08-28T06:24:18.171Z,16.30
2022-08-28T06:26:47.043Z,16.41
2022-08-28T06:29:21.075Z,16.46
2022-08-28T06:31:54.872Z,16.61
2022-08-28T06:34:23.182Z,16.58
2022-08-28T06:36:53.993Z,16.61
2022-08-28T06:39:24.609Z,16.65
2022-08-28T06:41:53.790Z,16.73
2022-08-28T06:44:23.563Z,16.73
2022-08-28T06:46:54.512Z,16.86
2022-08-28T06:49:23.369Z,16.87
2022-08-28T06:51:54.483Z,17.01
2022-08-28T06:54:24.119Z,17.02
2022-08-28T06:56:53.300Z,17.00
2022-08-28T06:59:21.856Z,17.04
2022-08-28T07:01:54.505Z,17.08
2022-08-28T07:04:22.995Z,17.10
2022-08-28T07:06:54.285Z,17.16
2022-08-28T07:09:25.217Z,17.31
2022-08-28T07:11:54.045Z,17.28
2022-08-28T07:14:22.863Z,17.31
2022-08-28T07:16:54.135Z,17.52
2022-08-28T07:19:22.390Z,17.59
2022-08-28T07:21:50.760Z,17.48
2022-08-28T07:24:20.239Z,17.64
2022-08-28T07:26:49.908Z,17.60
2022-08-28T07:29:19.368Z,17.67
2022-08-28T07:31:49.517Z,17.73
2022-08-28T07:34:19.750Z,17.77
2022-08-28T07:36:48.628Z,17.73
2022-08-28T07:39:17.153Z,17.68
2022-08-28T07:41:45.692Z,17.83
2022-08-28T07:44:34.396Z,17.94
2022-08-28T07:47:05.666Z,18.17
2022-08-28T07:49:36.111Z,18.18
2022-08-28T07:52:05.138Z,18.22
2022-08-28T07:54:33.744Z,18.25
2022-08-28T07:57:02.782Z,18.39
2022-08-28T07:59:37.031Z,18.59
2022-08-28T08:02:06.560Z,18.68
2022-08-28T08:04:35.276Z,18.79
2022-08-28T08:07:04.735Z,18.81
2022-08-28T08:09:33.252Z,18.92
2022-08-28T08:12:01.672Z,18.93
2022-08-28T08:14:31.440Z,18.92
2022-08-28T08:17:03.195Z,19.05
2022-08-28T08:19:32.862Z,19.03
2022-08-28T08:22:02.290Z,19.01
2022-08-28T08:24:30.597Z,19.18
2022-08-28T08:27:01.386Z,19.26
2022-08-28T08:29:32.524Z,19.14
2022-08-28T08:32:06.072Z,19.24
2022-08-28T08:34:38.651Z,19.28
2022-08-28T08:37:07.330Z,19.29
2022-08-28T08:39:36.361Z,19.46
2022-08-28T08:42:08.166Z,19.53
2022-08-28T08:44:41.249Z,19.52
2022-08-28T08:47:15.331Z,19.67
2022-08-28T08:49:51.019Z,19.85
2022-08-28T08:52:38.740Z,19.83
2022-08-28T08:55:17.100Z,19.95
2022-08-28T08:57:49.602Z,20.16
2022-08-28T09:00:19.417Z,20.33
2022-08-28T09:02:57.551Z,20.18
2022-08-28T09:05:39.653Z,20.33
2022-08-28T09:08:13.745Z,20.42
2022-08-28T09:10:53.117Z,20.18
2022-08-28T09:13:29.072Z,19.90
2022-08-28T09:15:57.385Z,19.85
2022-08-28T09:18:29.533Z,20.11
2022-08-28T09:21:00.025Z,20.28
2022-08-28T09:23:31.454Z,20.65
2022-08-28T09:26:02.533Z,21.17
2022-08-28T09:28:32.724Z,21.04
2022-08-28T09:31:07.453Z,21.03
2022-08-28T09:33:44.940Z,21.19
2022-08-28T09:36:27.924Z,21.30
2022-08-28T09:39:08.828Z,21.30
2022-08-28T09:41:57.314Z,21.23
2022-08-28T09:44:25.857Z,21.40
2022-08-28T09:46:54.291Z,21.80
2022-08-28T09:49:30.068Z,22.08
2022-08-28T09:52:01.677Z,22.10
2022-08-28T09:54:36.338Z,22.19
2022-08-28T09:57:05.238Z,21.33
2022-08-28T09:59:33.526Z,20.85
2022-08-28T10:02:13.254Z,20.65
2022-08-28T10:04:57.390Z,20.87
2022-08-28T10:07:37.006Z,20.49
2022-08-28T10:10:21.487Z,20.36
2022-08-28T10:13:01.582Z,21.04
2022-08-28T10:15:42.955Z,20.85
2022-08-28T10:18:27.933Z,21.30
2022-08-28T10:21:04.724Z,21.32
2022-08-28T10:23:45.061Z,21.11
2022-08-28T10:26:26.479Z,21.67
2022-08-28T10:29:04.111Z,21.58
2022-08-28T10:31:40.794Z,21.83
2022-08-28T10:34:26.242Z,21.54
2022-08-28T10:37:04.345Z,21.72
2022-08-28T10:39:43.608Z,22.39
2022-08-28T10:42:12.071Z,22.64
2022-08-28T10:44:52.861Z,22.54
2022-08-28T10:47:23.770Z,22.12
2022-08-28T10:50:01.826Z,21.62
2022-08-28T10:52:39.343Z,22.32
2022-08-28T10:55:14.309Z,22.43
2022-08-28T10:57:46.225Z,22.18
2022-08-28T11:00:20.379Z,22.16
2022-08-28T11:02:52.668Z,22.36
2022-08-28T11:05:23.324Z,22.28
2022-08-28T11:07:56.838Z,22.68
2022-08-28T11:10:49.482Z,22.33
2022-08-28T11:13:40.782Z,21.88
2022-08-28T11:16:13.318Z,22.37
2022-08-28T11:19:07.044Z,22.57
2022-08-28T11:21:41.634Z,22.39
2022-08-28T11:24:39.664Z,22.24
2022-08-28T11:27:36.573Z,22.34
2022-08-28T11:30:34.392Z,22.75
2022-08-28T11:33:11.110Z,23.47
2022-08-28T11:35:52.349Z,23.84
2022-08-28T11:39:12.735Z,23.88
2022-08-28T11:42:32.367Z,24.23
2022-08-28T11:45:01.281Z,24.19
2022-08-28T11:47:39.082Z,23.98
2022-08-28T11:50:21.050Z,24.35
2022-08-28T11:53:32.144Z,24.38
2022-08-28T11:56:31.478Z,24.32
2022-08-28T11:59:17.118Z,23.99
2022-08-28T12:01:45.492Z,24.15
2022-08-28T12:04:16.658Z,24.04
2022-08-28T12:06:55.587Z,24.32
2022-08-28T12:09:43.259Z,24.61
2022-08-28T12:12:50.096Z,24.84
2022-08-28T12:15:42.731Z,24.76
2022-08-28T12:18:55.547Z,24.84
2022-08-28T12:21:26.387Z,24.79
2022-08-28T12:24:07.218Z,24.97
2022-08-28T12:26:43.290Z,24.90
2022-08-28T12:29:27.981Z,24.98
2022-08-28T12:32:15.155Z,24.89
2022-08-28T12:34:50.386Z,25.29
2022-08-28T12:37:51.399Z,25.16
2022-08-28T12:40:23.718Z,25.42
2022-08-28T12:42:55.807Z,25.30
2022-08-28T12:45:31.877Z,25.16
2022-08-28T12:48:06.800Z,25.59
2022-08-28T12:50:38.332Z,25.47
2022-08-28T12:53:09.258Z,26.06
2022-08-28T12:55:39.245Z,25.80
2022-08-28T12:58:13.564Z,25.52
2022-08-28T13:00:54.026Z,25.14
2022-08-28T13:03:23.978Z,25.57
2022-08-28T13:05:58.736Z,25.68
2022-08-28T13:08:28.208Z,25.79
2022-08-28T13:10:57.001Z,25.87
2022-08-28T13:13:33.502Z,25.39
2022-08-28T13:16:04.603Z,25.80
2022-08-28T13:18:47.509Z,25.34
2022-08-28T13:21:35.235Z,24.62
2022-08-28T13:24:27.354Z,25.72
2022-08-28T13:27:06.242Z,25.80
2022-08-28T13:29:35.577Z,25.36
2022-08-28T13:32:07.347Z,25.72
2022-08-28T13:34:47.686Z,25.79
2022-08-28T13:37:42.270Z,25.99
2022-08-28T13:40:30.254Z,26.21
2022-08-28T13:43:03.837Z,26.48
2022-08-28T13:45:42.372Z,26.56
2022-08-28T13:48:13.211Z,25.59
2022-08-28T13:50:46.669Z,25.39
2022-08-28T13:53:17.712Z,25.76
2022-08-28T13:55:46.215Z,25.71
2022-08-28T13:58:16.156Z,25.53
2022-08-28T14:00:46.912Z,25.60
2022-08-28T14:03:32.940Z,26.17
2022-08-28T14:06:03.741Z,26.18
2022-08-28T14:08:32.214Z,25.79
2022-08-28T14:11:00.927Z,26.28
2022-08-28T14:13:29.269Z,26.66
2022-08-28T14:15:58.400Z,26.71
2022-08-28T14:18:28.046Z,27.61
2022-08-28T14:20:57.111Z,25.22
2022-08-28T14:23:26.865Z,26.06
2022-08-28T14:25:55.645Z,27.59
2022-08-28T14:28:24.132Z,28.12
2022-08-28T14:30:53.317Z,27.64
2022-08-28T14:33:21.779Z,26.24
2022-08-28T14:35:51.473Z,27.11
2022-08-28T14:38:19.804Z,26.68
2022-08-28T14:40:49.499Z,26.57
2022-08-28T14:43:18.293Z,27.57
2022-08-28T14:45:48.452Z,28.53
2022-08-28T14:48:19.111Z,28.27
2022-08-28T14:50:49.171Z,28.89
2022-08-28T14:53:17.504Z,28.78
2022-08-28T14:55:48.340Z,28.76
2022-08-28T14:58:19.391Z,27.46
2022-08-28T15:00:50.293Z,25.79
2022-08-28T15:03:20.219Z,24.44
2022-08-28T15:05:49.114Z,24.08
2022-08-28T15:08:18.382Z,26.24
2022-08-28T15:10:48.636Z,27.40
2022-08-28T15:13:18.348Z,28.04
2022-08-28T15:15:50.281Z,28.67
2022-08-28T15:18:18.787Z,29.11
2022-08-28T15:20:47.706Z,28.73
2022-08-28T15:23:16.404Z,29.24
2022-08-28T15:25:44.823Z,30.02
2022-08-28T15:28:13.651Z,30.12
2022-08-28T15:30:45.413Z,27.14
2022-08-28T15:33:14.282Z,25.37
2022-08-28T15:35:42.780Z,24.26
2022-08-28T15:38:11.118Z,23.74
2022-08-28T15:40:57.092Z,23.26
2022-08-28T15:43:25.430Z,24.56
2022-08-28T15:45:55.598Z,26.37
2022-08-28T15:48:23.880Z,27.26
2022-08-28T15:50:52.602Z,29.07
2022-08-28T15:53:22.202Z,28.82
2022-08-28T15:55:51.054Z,29.57
2022-08-28T15:58:19.424Z,28.78
2022-08-28T16:00:47.778Z,28.23
2022-08-28T16:03:17.645Z,26.04
2022-08-28T16:05:46.239Z,24.51
2022-08-28T16:08:14.702Z,23.96
2022-08-28T16:10:48.556Z,23.82
2022-08-28T16:13:17.501Z,23.86
2022-08-28T16:15:46.712Z,23.34
2022-08-28T16:18:17.489Z,23.46
2022-08-28T16:20:46.558Z,24.54
2022-08-28T16:23:15.517Z,24.53
2022-08-28T16:25:44.347Z,24.11
2022-08-28T16:28:12.965Z,24.30
2022-08-28T16:30:43.795Z,24.92
2022-08-28T16:33:13.204Z,25.31
2022-08-28T16:35:48.264Z,25.32
2022-08-28T16:38:19.816Z,26.22
2022-08-28T16:40:48.868Z,26.12
2022-08-28T16:43:17.462Z,24.78
2022-08-28T16:45:47.352Z,24.86
2022-08-28T16:48:16.806Z,24.11
2022-08-28T16:50:47.207Z,26.18
2022-08-28T16:53:15.892Z,26.58
2022-08-28T16:55:48.419Z,26.55
2022-08-28T16:58:17.316Z,25.89
2022-08-28T17:00:52.905Z,25.59
2022-08-28T17:03:26.538Z,24.74
2022-08-28T17:05:58.728Z,24.08
2022-08-28T17:08:27.233Z,22.93
2022-08-28T17:10:55.951Z,22.70
2022-08-28T17:13:24.970Z,22.54
2022-08-28T17:15:53.314Z,22.27
2022-08-28T17:18:21.756Z,22.24
2022-08-28T17:21:07.703Z,22.05
2022-08-28T17:23:37.378Z,21.92
2022-08-28T17:26:05.945Z,21.74
2022-08-28T17:28:35.178Z,21.68
2022-08-28T17:31:03.720Z,21.74
2022-08-28T17:33:32.677Z,21.67
2022-08-28T17:36:03.219Z,21.47
2022-08-28T17:38:31.883Z,21.36
2022-08-28T17:41:02.167Z,21.34
2022-08-28T17:43:30.730Z,21.27
2022-08-28T17:45:59.198Z,21.22
2022-08-28T17:48:27.648Z,21.18
2022-08-28T17:50:56.186Z,21.10
2022-08-28T17:53:27.785Z,20.99
2022-08-28T17:55:56.396Z,20.87
2022-08-28T17:58:26.378Z,20.84
2022-08-28T18:00:54.775Z,20.77
2022-08-28T18:03:23.566Z,20.76
2022-08-28T18:05:52.005Z,20.65
2022-08-28T18:08:20.505Z,20.60
2022-08-28T18:10:49.694Z,20.53
2022-08-28T18:13:19.422Z,20.48
2022-08-28T18:15:56.581Z,20.41
2022-08-28T18:18:26.957Z,20.31
2022-08-28T18:21:03.074Z,20.22
2022-08-28T18:23:31.531Z,20.16
2022-08-28T18:25:59.911Z,20.10
2022-08-28T18:28:28.712Z,20.02
2022-08-28T18:30:58.472Z,19.91
2022-08-28T18:33:27.167Z,19.83
2022-08-28T18:35:55.846Z,19.77
2022-08-28T18:38:28.166Z,19.77
2022-08-28T18:40:57.431Z,19.70
2022-08-28T18:43:25.808Z,19.62
2022-08-28T18:45:54.378Z,19.54
2022-08-28T18:48:24.476Z,19.52
2022-08-28T18:50:52.904Z,19.51
2022-08-28T18:53:23.524Z,19.37
2022-08-28T18:55:53.908Z,19.32
2022-08-28T18:58:22.891Z,19.32
2022-08-28T19:00:51.292Z,19.26
2022-08-28T19:03:20.143Z,19.21
2022-08-28T19:05:51.095Z,19.23
2022-08-28T19:08:19.665Z,19.12
2022-08-28T19:10:48.100Z,19.10
2022-08-28T19:13:16.465Z,19.12
2022-08-28T19:15:50.120Z,19.09
2022-08-28T19:18:18.927Z,19.09
2022-08-28T19:20:49.046Z,19.02
2022-08-28T19:23:18.115Z,19.06
2022-08-28T19:25:48.453Z,19.00
2022-08-28T19:28:16.782Z,18.96
2022-08-28T19:30:47.412Z,18.93
2022-08-28T19:33:16.835Z,18.93
2022-08-28T19:35:45.243Z,18.80
2022-08-28T19:38:15.434Z,18.82
2022-08-28T19:40:45.621Z,18.80
2022-08-28T19:43:16.814Z,18.71
2022-08-28T19:45:46.369Z,18.76
2022-08-28T19:48:15.274Z,18.78
2022-08-28T19:50:44.021Z,18.74
2022-08-28T19:53:13.400Z,18.70
2022-08-28T19:55:43.212Z,18.66
2022-08-28T19:58:12.087Z,18.61
2022-08-28T20:00:40.483Z,18.53
2022-08-28T20:03:09.257Z,18.47
2022-08-28T20:05:38.431Z,18.41
2022-08-28T20:08:06.982Z,18.29
2022-08-28T20:10:35.543Z,18.26
2022-08-28T20:13:05.676Z,18.25
2022-08-28T20:15:34.130Z,18.14
2022-08-28T20:18:02.774Z,18.10
2022-08-28T20:20:31.374Z,18.04
2022-08-28T20:22:59.751Z,17.99
2022-08-28T20:25:28.419Z,17.94
2022-08-28T20:28:01.431Z,17.87
2022-08-28T20:30:31.543Z,17.83
2022-08-28T20:33:01.428Z,17.83
2022-08-28T20:35:30.269Z,17.74
2022-08-28T20:37:58.792Z,17.79
2022-08-28T20:40:27.453Z,17.73
2022-08-28T20:42:57.938Z,17.73
2022-08-28T20:45:26.453Z,17.70
2022-08-28T20:47:56.349Z,17.68
2022-08-28T20:50:24.984Z,17.69
2022-08-28T20:52:53.258Z,17.54
2022-08-28T20:55:21.902Z,17.45
2022-08-28T20:57:50.299Z,17.44
2022-08-28T21:00:18.644Z,17.38
2022-08-28T21:02:46.901Z,17.30
2022-08-28T21:05:16.674Z,17.23
2022-08-28T21:07:45.082Z,17.23
2022-08-28T21:10:13.486Z,17.22
2022-08-28T21:12:41.865Z,17.19
2022-08-28T21:15:13.284Z,17.23
2022-08-28T21:17:42.728Z,17.23
2022-08-28T21:20:13.886Z,17.14
2022-08-28T21:22:43.877Z,17.14
2022-08-28T21:25:13.443Z,17.14
2022-08-28T21:27:42.533Z,17.11
2022-08-28T21:30:13.095Z,17.21
2022-08-28T21:32:41.732Z,17.17
2022-08-28T21:35:12.305Z,17.09
2022-08-28T21:37:43.519Z,17.05
2022-08-28T21:40:17.216Z,17.03
2022-08-28T21:42:45.691Z,17.04
2022-08-28T21:45:14.547Z,16.98
2022-08-28T21:47:43.568Z,16.90
2022-08-28T21:50:12.848Z,16.87
2022-08-28T21:52:41.511Z,16.85
2022-08-28T21:55:15.106Z,16.85
2022-08-28T21:57:44.706Z,16.80
2022-08-28T22:00:17.735Z,16.74
2022-08-28T22:02:47.165Z,16.76
2022-08-28T22:05:16.388Z,16.67
2022-08-28T22:07:45.127Z,16.61
2022-08-28T22:10:15.121Z,16.57
2022-08-28T22:12:43.553Z,16.49
2022-08-28T22:15:12.194Z,16.45
2022-08-28T22:17:40.589Z,16.45
2022-08-28T22:20:10.272Z,16.45
2022-08-28T22:22:56.298Z,16.41
2022-08-28T22:25:26.209Z,16.39
2022-08-28T22:27:54.663Z,16.40
2022-08-28T22:30:23.396Z,16.36
2022-08-28T22:32:53.419Z,16.36
2022-08-28T22:35:21.911Z,16.39
2022-08-28T22:37:50.339Z,16.35
2022-08-28T22:40:18.800Z,16.35
2022-08-28T22:42:50.502Z,16.40
2022-08-28T22:45:20.489Z,16.40
2022-08-28T22:47:50.321Z,16.32
2022-08-28T22:50:19.531Z,16.36
2022-08-28T22:52:48.688Z,16.37
2022-08-28T22:55:19.775Z,16.35
2022-08-28T22:57:52.239Z,16.28
2022-08-28T23:00:23.928Z,16.31
2022-08-28T23:02:53.209Z,16.35
2022-08-28T23:05:22.666Z,16.37
2022-08-28T23:07:51.208Z,16.42
2022-08-28T23:10:19.721Z,16.40
2022-08-28T23:12:50.233Z,16.39
2022-08-28T23:15:21.933Z,16.32
2022-08-28T23:17:51.011Z,16.39
2022-08-28T23:20:22.574Z,16.46
2022-08-28T23:22:53.272Z,16.34
2022-08-28T23:25:25.590Z,16.39
2022-08-28T23:27:55.997Z,16.36
2022-08-28T23:30:26.005Z,16.33
2022-08-28T23:32:55.046Z,16.40
2022-08-28T23:35:23.666Z,16.29
2022-08-28T23:37:52.306Z,16.36
2022-08-28T23:40:24.569Z,16.35
2022-08-28T23:42:55.568Z,16.30
2022-08-28T23:45:23.972Z,16.31
2022-08-28T23:47:52.634Z,16.34
2022-08-28T23:50:22.633Z,16.27
2022-08-28T23:52:54.055Z,16.25
2022-08-28T23:55:23.094Z,16.26
2022-08-28T23:57:56.744Z,16.21
